»·PEaware :: WAT169 KSEA-KRNO

WAT169 :: KSEA-KRNO

FLIGHT INFORMATION

Flight Status: Arrived
Operator:
Walker Air Transport
More flights by this operator :: More flights under this callsign
Pilot: Marty P. (27464)
Aircraft: BOEING 737-800
(B738)
More flights by this aircraft type
Origin: KSEA Seattle-Tacoma Intl
United States
Destination: KRNO Reno/Tahoe Intl
United States
More flights between these airports :: More routes between these airports
Route: SUMMA2 LKV HARTT HARTT1
File this flight plan on PilotEdge
Remarks:
Altitude:
(Current/Filed)
37,000ft
Speed:
(Current/Filed)
480kts
Departed: 04-Oct-20 08:50 AM
Arrived: 04-Oct-20 09:59 AM
Distance/Time
Traveled:
489nm/1:08
Distance/Time
To Go:
Arrived

Flight Plot

Page will automatically refresh every two minutes.

Flight plan parsing failed; only flown route is shown


Map Options




Map Legend


Flown Route
Filed Route
Departure Airport
Arrival Airport
Navaid (VOR, NDB)
Fix

Horizontal Profiles

Position Reports

Time Latitude Longitude Heading Altitude Ground
Speed
04-Oct-20 08:26 47.438914 -122.298282 87 443ft 0kts
04-Oct-20 08:27 47.438914 -122.298282 87 443ft 0kts
04-Oct-20 08:28 47.438914 -122.298282 87 443ft 0kts
04-Oct-20 08:29 47.438914 -122.298282 87 443ft 0kts
04-Oct-20 08:30 47.438914 -122.298282 87 443ft 0kts
04-Oct-20 08:31 47.438914 -122.298282 87 443ft 0kts
04-Oct-20 08:32 47.438914 -122.298282 87 443ft 0kts
04-Oct-20 08:33 47.438914 -122.298282 87 443ft 0kts
04-Oct-20 08:34 47.438914 -122.298282 87 443ft 0kts
04-Oct-20 08:35 47.438914 -122.298282 87 443ft 0kts
04-Oct-20 08:36 47.438908 -122.298462 87 443ft 2kts
04-Oct-20 08:37 47.438839 -122.299215 63 443ft 2kts
04-Oct-20 08:38 47.438446 -122.299708 15 443ft 0kts
04-Oct-20 08:39 47.439712 -122.300069 314 443ft 7kts
04-Oct-20 08:40 47.439953 -122.300443 313 443ft 0kts
04-Oct-20 08:41 47.440413 -122.301324 288 443ft 17kts
04-Oct-20 08:42 47.439896 -122.305045 270 443ft 0kts
04-Oct-20 08:43 47.441127 -122.306361 0 443ft 19kts
04-Oct-20 08:44 47.447576 -122.306276 0 443ft 26kts
04-Oct-20 08:45 47.454362 -122.306214 0 443ft 28kts
04-Oct-20 08:46 47.461688 -122.306151 0 443ft 14kts
04-Oct-20 08:47 47.463683 -122.306440 302 443ft 2kts
04-Oct-20 08:48 47.462205 -122.307763 180 443ft 8kts
04-Oct-20 08:49 47.428469 -122.307934 178 1230ft 173kts
04-Oct-20 08:50 47.373966 -122.322995 179 3139ft 239kts
04-Oct-20 08:51 47.307064 -122.315820 174 6759ft 246kts
04-Oct-20 08:52 47.236556 -122.304532 160 8996ft 270kts
04-Oct-20 08:53 47.171222 -122.259372 160 9019ft 259kts
04-Oct-20 08:54 47.100441 -122.221158 162 9016ft 276kts
04-Oct-20 08:55 47.028559 -122.185696 164 11815ft 275kts
04-Oct-20 08:56 46.942293 -122.144334 163 12453ft 386kts
04-Oct-20 08:57 46.839243 -122.094702 163 15885ft 395kts
04-Oct-20 08:58 46.732788 -122.043522 163 18674ft 410kts
04-Oct-20 08:59 46.622394 -121.990738 165 20984ft 427kts
04-Oct-20 09:00 46.505847 -121.945036 168 23134ft 440kts
04-Oct-20 09:01 46.385557 -121.898788 168 24983ft 453kts
04-Oct-20 09:02 46.261838 -121.851385 168 26604ft 467kts
04-Oct-20 09:03 46.134197 -121.802692 168 28060ft 479kts
04-Oct-20 09:04 46.004938 -121.753595 168 29815ft 479kts
04-Oct-20 09:05 45.876288 -121.704978 167 31586ft 476kts
04-Oct-20 09:06 45.748293 -121.656848 167 33173ft 473kts
04-Oct-20 09:07 45.621496 -121.609396 167 34594ft 471kts
04-Oct-20 09:08 45.494564 -121.562120 167 35840ft 470kts
04-Oct-20 09:09 45.367951 -121.515182 166 36912ft 470kts
04-Oct-20 09:10 45.240139 -121.468035 166 37277ft 484kts
04-Oct-20 09:11 45.107288 -121.419249 166 37275ft 499kts
04-Oct-20 09:12 44.971788 -121.369718 166 37319ft 507kts
04-Oct-20 09:14 44.834548 -121.319779 166 37328ft 511kts
04-Oct-20 09:15 44.696695 -121.269868 166 37329ft 512kts
04-Oct-20 09:16 44.558465 -121.220083 166 37329ft 513kts
04-Oct-20 09:17 44.419921 -121.170436 166 37340ft 513kts
04-Oct-20 09:18 44.281427 -121.121051 166 37366ft 513kts
04-Oct-20 09:19 44.143043 -121.071947 166 37360ft 514kts
04-Oct-20 09:20 44.003868 -121.022801 166 37355ft 515kts
04-Oct-20 09:21 43.864725 -120.973928 166 37350ft 515kts
04-Oct-20 09:22 43.725717 -120.925298 166 37358ft 515kts
04-Oct-20 09:23 43.587257 -120.877105 166 37366ft 515kts
04-Oct-20 09:24 43.448088 -120.828899 166 37366ft 516kts
04-Oct-20 09:25 43.308963 -120.780938 166 37366ft 516kts
04-Oct-20 09:26 43.169257 -120.733005 166 37368ft 516kts
04-Oct-20 09:27 43.029780 -120.685376 165 37400ft 516kts
04-Oct-20 09:28 42.890346 -120.637986 165 37402ft 516kts
04-Oct-20 09:28 42.774419 -120.598753 165 37402ft 516kts
04-Oct-20 09:30 42.612045 -120.544056 165 37402ft 516kts
04-Oct-20 09:31 42.472712 -120.497705 167 37402ft 516kts
04-Oct-20 09:32 42.332155 -120.457877 167 37402ft 516kts
04-Oct-20 09:32 42.215030 -120.423476 167 37402ft 516kts
04-Oct-20 09:33 42.075059 -120.381947 167 37402ft 517kts
04-Oct-20 09:35 41.910883 -120.333260 167 37385ft 517kts
04-Oct-20 09:35 41.794045 -120.298720 167 37384ft 517kts
04-Oct-20 09:36 41.653762 -120.257432 167 37384ft 516kts
04-Oct-20 09:37 41.513037 -120.216205 167 37384ft 516kts
04-Oct-20 09:38 41.372932 -120.175343 167 37383ft 517kts
04-Oct-20 09:39 41.232442 -120.134550 167 37207ft 522kts
04-Oct-20 09:40 41.092007 -120.093963 167 34549ft 505kts
04-Oct-20 09:41 40.957937 -120.055380 167 31542ft 485kts
04-Oct-20 09:42 40.826228 -120.017574 166 28545ft 488kts
04-Oct-20 09:43 40.694621 -119.975536 164 25542ft 490kts
04-Oct-20 09:44 40.566308 -119.934227 164 22522ft 462kts
04-Oct-20 09:45 40.444789 -119.895181 164 19901ft 440kts
04-Oct-20 09:46 40.327100 -119.857656 165 17891ft 425kts
04-Oct-20 09:47 40.218131 -119.822974 165 15874ft 382kts
04-Oct-20 09:48 40.119460 -119.791628 166 14222ft 350kts
04-Oct-20 09:49 40.028805 -119.767771 177 13164ft 308kts
04-Oct-20 09:50 39.941139 -119.767374 180 11981ft 317kts
04-Oct-20 09:51 39.856200 -119.767091 180 9765ft 296kts
04-Oct-20 09:52 39.779236 -119.768040 181 8804ft 262kts
04-Oct-20 09:53 39.710554 -119.769534 178 7958ft 242kts
04-Oct-20 09:54 39.648437 -119.768539 180 7262ft 210kts
04-Oct-20 09:55 39.591337 -119.768799 179 6089ft 180kts
04-Oct-20 09:56 39.546456 -119.769126 180 5184ft 159kts
04-Oct-20 09:57 39.503318 -119.769286 179 4426ft 113kts
04-Oct-20 09:58 39.497521 -119.771341 319 4425ft 10kts
04-Oct-20 09:59 39.502637 -119.771523 359 4425ft 26kts
04-Oct-20 10:00 39.504406 -119.773271 358 4425ft 0kts

Navigation Log

Ident Type
Flight plan parsing failed, navigation log unavailable